createdAt,value
2017-09-09T00:00:28.569Z,10.80
2017-09-09T00:02:56.225Z,10.80
2017-09-09T00:05:23.826Z,10.80
2017-09-09T00:07:51.383Z,10.70
2017-09-09T00:10:18.945Z,10.70
2017-09-09T00:12:46.624Z,10.60
2017-09-09T00:15:14.185Z,10.70
2017-09-09T00:17:42.683Z,10.70
2017-09-09T00:20:10.388Z,10.70
2017-09-09T00:22:38.680Z,10.60
2017-09-09T00:25:07.024Z,10.60
2017-09-09T00:27:34.464Z,10.50
2017-09-09T00:30:02.001Z,10.50
2017-09-09T00:32:29.544Z,10.60
2017-09-09T00:34:56.972Z,10.60
2017-09-09T00:37:25.180Z,10.50
2017-09-09T00:39:52.612Z,10.50
2017-09-09T00:42:20.820Z,10.50
2017-09-09T00:44:48.247Z,10.50
2017-09-09T00:47:15.683Z,10.50
2017-09-09T00:49:43.127Z,10.50
2017-09-09T00:52:10.574Z,10.50
2017-09-09T00:54:38.007Z,10.40
2017-09-09T00:57:05.453Z,10.40
2017-09-09T00:59:32.888Z,10.40
2017-09-09T01:02:01.096Z,10.40
2017-09-09T01:04:28.540Z,10.30
2017-09-09T01:06:55.978Z,10.30
2017-09-09T01:09:24.179Z,10.40
2017-09-09T01:11:51.621Z,10.40
2017-09-09T01:14:19.823Z,10.40
2017-09-09T01:16:47.263Z,10.40
2017-09-09T01:19:14.703Z,10.40
2017-09-09T01:21:42.915Z,10.30
2017-09-09T01:24:10.352Z,10.40
2017-09-09T01:26:37.788Z,10.30
2017-09-09T01:29:06.000Z,10.30
2017-09-09T01:31:33.441Z,10.30
2017-09-09T01:34:00.887Z,10.30
2017-09-09T01:36:29.090Z,10.30
2017-09-09T01:38:56.531Z,10.20
2017-09-09T01:41:23.963Z,10.20
2017-09-09T01:43:52.183Z,10.10
2017-09-09T01:46:19.619Z,10.10
2017-09-09T01:48:47.064Z,10.10
2017-09-09T01:51:14.507Z,10.10
2017-09-09T01:53:41.947Z,10.10
2017-09-09T01:56:10.217Z,10.10
2017-09-09T01:58:37.659Z,10.10
2017-09-09T02:01:05.100Z,10.10
2017-09-09T02:03:32.551Z,10.20
2017-09-09T02:05:59.982Z,10.20
2017-09-09T02:08:28.191Z,10.10
2017-09-09T02:10:55.632Z,10.10
2017-09-09T02:13:23.071Z,10.00
2017-09-09T02:15:51.280Z,10.00
2017-09-09T02:18:18.720Z,9.90
2017-09-09T02:20:46.161Z,9.90
2017-09-09T02:23:13.596Z,9.90
2017-09-09T02:25:41.032Z,9.90
2017-09-09T02:28:08.471Z,10.00
2017-09-09T02:30:35.911Z,10.00
2017-09-09T02:33:03.352Z,10.00
2017-09-09T02:35:30.797Z,9.90
2017-09-09T02:37:58.307Z,9.90
2017-09-09T02:40:25.814Z,9.90
2017-09-09T02:42:53.348Z,9.90
2017-09-09T02:45:20.925Z,9.90
2017-09-09T02:47:48.457Z,9.90
2017-09-09T02:50:16.036Z,9.90
2017-09-09T02:52:43.555Z,10.00
2017-09-09T02:55:11.759Z,10.00
2017-09-09T02:57:39.216Z,9.90
2017-09-09T03:00:06.680Z,9.90
2017-09-09T03:02:34.172Z,9.90
2017-09-09T03:05:02.051Z,9.80
2017-09-09T03:07:29.728Z,9.80
2017-09-09T03:09:57.308Z,9.80
2017-09-09T03:12:25.172Z,9.80
2017-09-09T03:14:52.798Z,9.70
2017-09-09T03:17:27.875Z,9.70
2017-09-09T03:19:55.655Z,9.70
2017-09-09T03:22:33.523Z,9.70
2017-09-09T03:25:01.096Z,9.70
2017-09-09T03:30:35.027Z,9.70
2017-09-09T03:33:03.107Z,9.70
2017-09-09T03:35:31.423Z,9.70
2017-09-09T03:37:58.855Z,9.70
2017-09-09T03:40:26.298Z,9.60
2017-09-09T03:42:53.732Z,9.60
2017-09-09T03:45:21.932Z,9.70
2017-09-09T03:47:49.373Z,9.70
2017-09-09T03:50:17.568Z,9.70
2017-09-09T03:52:45.008Z,9.60
2017-09-09T03:55:12.432Z,9.60
2017-09-09T03:57:39.862Z,9.60
2017-09-09T04:00:07.292Z,9.60
2017-09-09T04:02:34.736Z,9.60
2017-09-09T04:05:02.165Z,9.60
2017-09-09T04:07:29.598Z,9.60
2017-09-09T04:09:57.032Z,9.60
2017-09-09T04:12:24.473Z,9.60
2017-09-09T04:14:51.907Z,9.60
2017-09-09T04:17:19.340Z,9.60
2017-09-09T04:19:46.767Z,9.60
2017-09-09T04:22:14.207Z,9.60
2017-09-09T04:24:41.645Z,9.50
2017-09-09T04:27:09.847Z,9.50
2017-09-09T04:29:37.285Z,9.40
2017-09-09T04:32:04.715Z,9.40
2017-09-09T04:34:32.148Z,9.50
2017-09-09T04:36:59.581Z,9.50
2017-09-09T04:39:27.016Z,9.50
2017-09-09T04:41:54.450Z,9.60
2017-09-09T04:44:22.652Z,9.60
2017-09-09T04:46:50.088Z,9.60
2017-09-09T04:49:18.287Z,9.60
2017-09-09T04:51:45.720Z,9.60
2017-09-09T04:54:13.923Z,9.60
2017-09-09T04:56:41.355Z,9.60
2017-09-09T04:59:09.562Z,9.70
2017-09-09T05:01:36.983Z,9.60
2017-09-09T05:04:05.200Z,9.80
2017-09-09T05:06:32.633Z,9.80
2017-09-09T05:09:00.834Z,9.90
2017-09-09T05:11:28.262Z,9.90
2017-09-09T05:13:56.470Z,10.00
2017-09-09T05:16:23.909Z,10.00
2017-09-09T05:18:51.344Z,10.10
2017-09-09T05:21:19.547Z,10.20
2017-09-09T05:23:46.982Z,10.20
2017-09-09T05:26:15.190Z,10.40
2017-09-09T05:28:42.634Z,10.40
2017-09-09T05:31:10.071Z,10.50
2017-09-09T05:33:38.284Z,10.60
2017-09-09T05:36:05.722Z,10.60
2017-09-09T05:38:33.158Z,10.70
2017-09-09T05:41:01.366Z,11.00
2017-09-09T05:43:28.804Z,11.00
2017-09-09T05:45:57.007Z,11.30
2017-09-09T05:48:24.443Z,11.30
2017-09-09T05:50:52.644Z,11.60
2017-09-09T05:53:20.083Z,11.60
2017-09-09T05:55:47.524Z,11.70
2017-09-09T05:58:15.724Z,12.10
2017-09-09T06:00:43.168Z,12.10
2017-09-09T06:03:10.607Z,12.30
2017-09-09T06:05:38.819Z,12.60
2017-09-09T06:08:06.256Z,12.60
2017-09-09T06:10:33.700Z,12.80
2017-09-09T06:13:01.905Z,13.10
2017-09-09T06:15:29.349Z,13.10
2017-09-09T06:17:56.787Z,13.50
2017-09-09T06:20:25.000Z,14.40
2017-09-09T06:22:52.448Z,14.40
2017-09-09T06:25:19.894Z,14.90
2017-09-09T06:27:47.336Z,15.50
2017-09-09T06:30:15.552Z,15.50
2017-09-09T06:32:42.990Z,15.50
2017-09-09T06:35:10.466Z,15.50
2017-09-09T06:37:37.904Z,15.90
2017-09-09T06:40:05.348Z,16.00
2017-09-09T06:42:42.873Z,16.10
2017-09-09T06:45:10.325Z,16.20
2017-09-09T06:47:37.786Z,16.10
2017-09-09T06:50:05.240Z,16.00
2017-09-09T06:52:32.700Z,15.80
2017-09-09T06:55:00.161Z,15.80
2017-09-09T06:57:27.616Z,15.70
2017-09-09T06:59:55.081Z,15.60
2017-09-09T07:02:22.543Z,15.50
2017-09-09T07:04:49.996Z,15.40
2017-09-09T07:07:17.461Z,15.30
2017-09-09T07:09:44.920Z,15.20
2017-09-09T07:12:12.381Z,15.10
2017-09-09T07:14:39.836Z,15.00
2017-09-09T07:17:07.292Z,15.00
2017-09-09T07:19:34.742Z,15.00
2017-09-09T07:22:02.208Z,15.00
2017-09-09T07:24:29.664Z,15.10
2017-09-09T07:26:57.132Z,15.20
2017-09-09T07:29:24.587Z,15.30
2017-09-09T07:31:52.043Z,15.50
2017-09-09T07:34:19.499Z,15.60
2017-09-09T07:36:46.959Z,15.90
2017-09-09T07:39:14.422Z,16.20
2017-09-09T07:41:41.871Z,16.50
2017-09-09T07:44:09.336Z,16.90
2017-09-09T07:46:36.816Z,17.20
2017-09-09T07:49:04.260Z,17.50
2017-09-09T07:51:31.712Z,17.90
2017-09-09T07:53:59.168Z,18.00
2017-09-09T07:56:26.624Z,18.20
2017-09-09T07:58:54.071Z,18.40
2017-09-09T08:01:21.519Z,18.60
2017-09-09T08:03:49.738Z,19.30
2017-09-09T08:06:17.195Z,19.30
2017-09-09T08:08:44.656Z,19.40
2017-09-09T08:11:12.102Z,19.60
2017-09-09T08:13:39.561Z,19.70
2017-09-09T08:16:07.013Z,19.70
2017-09-09T08:18:34.467Z,19.40
2017-09-09T08:21:01.916Z,19.20
2017-09-09T08:23:29.364Z,19.20
2017-09-09T08:25:56.817Z,19.00
2017-09-09T08:28:25.027Z,18.60
2017-09-09T08:30:52.492Z,18.60
2017-09-09T08:33:19.944Z,18.70
2017-09-09T08:35:47.405Z,18.70
2017-09-09T08:38:14.869Z,18.80
2017-09-09T08:40:42.315Z,18.90
2017-09-09T08:43:09.767Z,19.20
2017-09-09T08:45:37.223Z,19.40
2017-09-09T08:48:04.670Z,19.50
2017-09-09T08:50:32.123Z,20.10
2017-09-09T08:52:59.572Z,20.30
2017-09-09T08:55:27.779Z,20.10
2017-09-09T08:57:55.233Z,20.00
2017-09-09T09:00:22.693Z,20.00
2017-09-09T09:02:50.429Z,20.10
2017-09-09T09:05:18.648Z,19.90
2017-09-09T09:07:46.091Z,19.80
2017-09-09T09:10:13.542Z,19.90
2017-09-09T09:12:40.988Z,19.60
2017-09-09T09:15:08.444Z,19.50
2017-09-09T09:17:35.891Z,19.60
2017-09-09T09:20:03.349Z,19.70
2017-09-09T09:22:31.560Z,19.90
2017-09-09T09:24:59.015Z,19.90
2017-09-09T09:27:26.467Z,20.00
2017-09-09T09:29:53.916Z,20.20
2017-09-09T09:32:22.126Z,20.40
2017-09-09T09:34:49.588Z,20.40
2017-09-09T09:37:17.032Z,20.20
2017-09-09T09:39:44.487Z,19.90
2017-09-09T09:42:11.931Z,20.10
2017-09-09T09:44:39.387Z,20.10
2017-09-09T09:47:07.600Z,20.30
2017-09-09T09:49:35.053Z,20.20
2017-09-09T09:52:02.503Z,20.10
2017-09-09T09:54:29.958Z,20.00
2017-09-09T09:56:57.410Z,20.10
2017-09-09T09:59:24.855Z,20.00
2017-09-09T10:01:52.309Z,20.10
2017-09-09T10:04:20.528Z,20.40
2017-09-09T10:06:47.976Z,20.40
2017-09-09T10:09:15.432Z,20.40
2017-09-09T10:11:42.879Z,20.30
2017-09-09T10:14:10.352Z,20.10
2017-09-09T10:16:37.795Z,19.80
2017-09-09T10:19:05.244Z,19.80
2017-09-09T10:21:32.703Z,19.60
2017-09-09T10:24:15.018Z,19.70
2017-09-09T10:26:42.468Z,19.90
2017-09-09T10:29:09.914Z,19.80
2017-09-09T10:31:37.365Z,19.60
2017-09-09T10:34:04.815Z,19.40
2017-09-09T10:36:33.036Z,19.40
2017-09-09T10:39:00.484Z,19.30
2017-09-09T10:41:27.941Z,19.40
2017-09-09T10:43:55.387Z,19.40
2017-09-09T10:46:22.849Z,19.60
2017-09-09T10:48:50.292Z,19.70
2017-09-09T10:51:17.744Z,19.90
2017-09-09T10:53:45.952Z,20.00
2017-09-09T10:56:13.403Z,20.00
2017-09-09T10:58:40.851Z,19.90
2017-09-09T11:01:08.310Z,19.90
2017-09-09T11:03:35.747Z,19.90
2017-09-09T11:06:03.208Z,20.20
2017-09-09T11:08:30.651Z,20.60
2017-09-09T11:10:58.108Z,20.70
2017-09-09T11:13:25.556Z,20.20
2017-09-09T11:15:53.008Z,20.20
2017-09-09T11:18:20.448Z,20.30
2017-09-09T11:20:47.909Z,20.20
2017-09-09T11:23:15.356Z,20.30
2017-09-09T11:25:42.808Z,20.20
2017-09-09T11:28:10.257Z,20.20
2017-09-09T11:30:37.708Z,20.20
2017-09-09T11:33:05.151Z,20.20
2017-09-09T11:35:33.373Z,20.10
2017-09-09T11:38:00.819Z,20.10
2017-09-09T11:40:28.280Z,19.90
2017-09-09T11:42:55.730Z,19.80
2017-09-09T11:45:23.190Z,19.50
2017-09-09T11:47:51.440Z,19.20
2017-09-09T11:50:19.654Z,19.10
2017-09-09T11:52:47.103Z,19.10
2017-09-09T11:55:14.559Z,19.00
2017-09-09T11:57:42.019Z,19.00
2017-09-09T12:00:09.480Z,19.00
2017-09-09T12:02:36.934Z,19.10
2017-09-09T12:05:04.387Z,19.10
2017-09-09T12:07:31.831Z,18.90
2017-09-09T12:09:59.287Z,18.70
2017-09-09T12:12:26.735Z,18.60
2017-09-09T12:14:54.187Z,18.70
2017-09-09T12:17:22.410Z,18.70
2017-09-09T12:19:49.864Z,18.70
2017-09-09T12:22:17.307Z,18.50
2017-09-09T12:24:44.768Z,18.30
2017-09-09T12:27:12.220Z,18.20
2017-09-09T12:29:39.671Z,18.10
2017-09-09T12:32:07.125Z,18.00
2017-09-09T12:34:35.336Z,17.90
2017-09-09T12:37:02.793Z,17.80
2017-09-09T12:39:30.243Z,17.90
2017-09-09T12:41:57.697Z,17.80
2017-09-09T12:44:25.152Z,17.80
2017-09-09T12:46:52.603Z,17.80
2017-09-09T12:49:20.053Z,17.90
2017-09-09T12:51:47.511Z,17.90
2017-09-09T12:54:14.951Z,17.90
2017-09-09T12:56:43.172Z,17.90
2017-09-09T12:59:10.621Z,17.90
2017-09-09T13:01:38.075Z,17.90
2017-09-09T13:04:05.521Z,17.80
2017-09-09T13:06:32.976Z,17.60
2017-09-09T13:09:00.423Z,17.60
2017-09-09T13:11:27.877Z,17.60
2017-09-09T13:13:56.086Z,17.30
2017-09-09T13:16:23.544Z,17.30
2017-09-09T13:18:50.998Z,17.20
2017-09-09T13:21:18.454Z,17.00
2017-09-09T13:23:45.903Z,16.60
2017-09-09T13:26:13.366Z,16.30
2017-09-09T13:28:40.812Z,16.20
2017-09-09T13:31:08.273Z,16.10
2017-09-09T13:33:35.725Z,15.90
2017-09-09T13:36:03.180Z,15.80
2017-09-09T13:38:31.394Z,15.60
2017-09-09T13:40:58.857Z,15.60
2017-09-09T13:43:26.302Z,15.70
2017-09-09T13:45:53.764Z,15.70
2017-09-09T13:48:21.216Z,15.70
2017-09-09T13:50:48.667Z,15.70
2017-09-09T13:53:16.123Z,15.70
2017-09-09T13:55:43.579Z,15.60
2017-09-09T13:58:11.034Z,15.50
2017-09-09T14:00:38.503Z,15.40
2017-09-09T14:03:05.962Z,15.40
2017-09-09T14:05:33.412Z,15.40
2017-09-09T14:08:00.864Z,15.40
2017-09-09T14:10:28.339Z,15.30
2017-09-09T14:12:55.796Z,15.30
2017-09-09T14:15:23.251Z,15.30
2017-09-09T14:17:50.705Z,15.20
2017-09-09T14:20:18.156Z,15.20
2017-09-09T14:22:45.607Z,15.20
2017-09-09T14:25:13.056Z,15.30
2017-09-09T14:27:41.277Z,15.40
2017-09-09T14:30:08.723Z,15.30
2017-09-09T14:32:36.186Z,15.40
2017-09-09T14:35:03.636Z,15.30
2017-09-09T14:37:31.096Z,15.40
2017-09-09T14:39:58.547Z,15.30
2017-09-09T14:42:26.002Z,15.30
2017-09-09T14:44:53.452Z,15.20
2017-09-09T14:47:20.907Z,15.20
2017-09-09T14:49:48.352Z,15.20
2017-09-09T14:52:15.804Z,15.20
2017-09-09T14:54:43.253Z,15.10
2017-09-09T14:57:10.699Z,15.10
2017-09-09T14:59:38.147Z,15.20
2017-09-09T15:02:05.603Z,15.20
2017-09-09T15:04:33.052Z,15.10
2017-09-09T15:07:00.510Z,15.10
2017-09-09T15:09:27.956Z,15.00
2017-09-09T15:11:55.416Z,15.00
2017-09-09T15:14:22.865Z,14.90
2017-09-09T15:16:50.327Z,15.10
2017-09-09T15:19:17.759Z,14.90
2017-09-09T15:21:45.211Z,14.90
2017-09-09T15:24:12.660Z,14.90
2017-09-09T15:26:40.887Z,14.80
2017-09-09T15:29:08.334Z,14.80
2017-09-09T15:31:35.785Z,14.80
2017-09-09T15:34:03.228Z,14.80
2017-09-09T15:36:30.680Z,14.80
2017-09-09T15:38:58.127Z,14.70
2017-09-09T15:41:25.580Z,14.70
2017-09-09T15:43:53.027Z,14.60
2017-09-09T15:46:21.247Z,14.60
2017-09-09T15:48:48.698Z,14.60
2017-09-09T15:51:16.156Z,14.50
2017-09-09T15:53:43.603Z,14.50
2017-09-09T15:56:11.059Z,14.50
2017-09-09T15:58:38.507Z,14.50
2017-09-09T16:01:05.963Z,14.50
2017-09-09T16:03:33.416Z,14.40
2017-09-09T16:06:00.871Z,14.40
2017-09-09T16:08:28.316Z,14.40
2017-09-09T16:10:55.782Z,14.30
2017-09-09T16:13:23.238Z,14.20
2017-09-09T16:15:50.689Z,14.20
2017-09-09T16:18:18.143Z,14.20
2017-09-09T16:20:45.592Z,14.20
2017-09-09T16:23:13.043Z,14.10
2017-09-09T16:25:40.490Z,14.10
2017-09-09T16:28:07.940Z,14.00
2017-09-09T16:30:35.388Z,14.00
2017-09-09T16:33:02.843Z,14.00
2017-09-09T16:35:30.289Z,14.00
2017-09-09T16:37:57.749Z,14.00
2017-09-09T16:40:25.199Z,14.00
2017-09-09T16:42:52.659Z,14.00
2017-09-09T16:45:20.107Z,14.00
2017-09-09T16:47:47.560Z,14.00
2017-09-09T16:50:15.004Z,14.00
2017-09-09T16:52:42.463Z,13.90
2017-09-09T16:55:09.912Z,13.80
2017-09-09T16:57:38.150Z,13.70
2017-09-09T17:00:05.603Z,13.70
2017-09-09T17:02:33.059Z,13.70
2017-09-09T17:05:00.508Z,13.70
2017-09-09T17:07:27.963Z,13.70
2017-09-09T17:09:55.415Z,13.70
2017-09-09T17:12:22.862Z,13.70
2017-09-09T17:14:50.317Z,13.70
2017-09-09T17:17:18.530Z,13.60
2017-09-09T17:19:45.975Z,13.60
2017-09-09T17:22:13.428Z,13.60
2017-09-09T17:24:40.876Z,13.60
2017-09-09T17:27:08.328Z,13.60
2017-09-09T17:29:35.777Z,13.70
2017-09-09T17:32:03.232Z,13.60
2017-09-09T17:34:30.675Z,13.60
2017-09-09T17:36:58.900Z,13.60
2017-09-09T17:39:26.443Z,13.60
2017-09-09T17:41:53.892Z,13.60
2017-09-09T17:44:21.336Z,13.60
2017-09-09T17:46:48.788Z,13.60
2017-09-09T17:49:16.235Z,13.50
2017-09-09T17:51:43.707Z,13.50
2017-09-09T17:54:11.159Z,13.40
2017-09-09T17:56:38.606Z,13.40
2017-09-09T17:59:06.052Z,13.40
2017-09-09T18:01:33.500Z,13.40
2017-09-09T18:04:00.951Z,13.40
2017-09-09T18:06:28.403Z,13.40
2017-09-09T18:08:55.856Z,13.40
2017-09-09T18:11:24.067Z,13.40
2017-09-09T18:13:51.525Z,13.40
2017-09-09T18:16:18.976Z,13.50
2017-09-09T18:18:47.204Z,13.50
2017-09-09T18:21:15.416Z,13.40
2017-09-09T18:23:42.871Z,13.40
2017-09-09T18:26:10.319Z,13.40
2017-09-09T18:28:37.767Z,13.40
2017-09-09T18:31:06.093Z,13.50
2017-09-09T18:33:33.523Z,13.50
2017-09-09T18:36:00.968Z,13.50
2017-09-09T18:38:28.421Z,13.50
2017-09-09T18:40:55.872Z,13.40
2017-09-09T18:43:24.085Z,13.50
2017-09-09T18:45:51.535Z,13.40
2017-09-09T18:48:18.995Z,13.40
2017-09-09T18:50:47.146Z,13.40
2017-09-09T18:53:14.589Z,13.40
2017-09-09T18:55:42.050Z,13.40
2017-09-09T18:58:09.495Z,13.30
2017-09-09T19:00:36.948Z,13.40
2017-09-09T19:03:04.395Z,13.40
2017-09-09T19:05:31.839Z,13.40
2017-09-09T19:07:59.287Z,13.40
2017-09-09T19:10:26.743Z,13.40
2017-09-09T19:12:54.961Z,13.30
2017-09-09T19:15:22.409Z,13.30
2017-09-09T19:17:49.864Z,13.30
2017-09-09T19:20:17.316Z,13.30
2017-09-09T19:22:44.768Z,13.30
2017-09-09T19:25:12.215Z,13.30
2017-09-09T19:27:39.669Z,13.30
2017-09-09T19:30:07.116Z,13.30
2017-09-09T19:32:34.555Z,13.30
2017-09-09T19:35:02.010Z,13.30
2017-09-09T19:37:29.474Z,13.30
2017-09-09T19:39:56.919Z,13.30
2017-09-09T19:42:24.367Z,13.30
2017-09-09T19:44:51.816Z,13.30
2017-09-09T19:47:19.265Z,13.30
2017-09-09T19:49:46.713Z,13.30
2017-09-09T19:52:14.162Z,13.20
2017-09-09T19:54:41.608Z,13.20
2017-09-09T19:57:09.059Z,13.20
2017-09-09T19:59:36.500Z,13.10
2017-09-09T20:02:03.959Z,13.10
2017-09-09T20:04:31.395Z,13.00
2017-09-09T20:06:58.845Z,13.00
2017-09-09T20:09:26.288Z,12.90
2017-09-09T20:11:53.740Z,12.90
2017-09-09T20:14:21.712Z,12.80
2017-09-09T20:16:51.249Z,12.80
2017-09-09T20:19:18.916Z,12.80
2017-09-09T20:21:46.442Z,12.70
2017-09-09T20:24:14.162Z,12.70
2017-09-09T20:26:42.372Z,12.70
2017-09-09T20:29:09.815Z,12.70
2017-09-09T20:31:37.263Z,12.70
2017-09-09T20:34:05.475Z,12.60
2017-09-09T20:36:32.923Z,12.60
2017-09-09T20:39:00.367Z,12.50
2017-09-09T20:41:27.811Z,12.50
2017-09-09T20:43:55.259Z,12.40
2017-09-09T20:46:22.723Z,12.40
2017-09-09T20:48:50.174Z,12.40
2017-09-09T20:51:17.624Z,12.40
2017-09-09T20:53:45.075Z,12.30
2017-09-09T20:56:12.523Z,12.30
2017-09-09T20:58:39.980Z,12.30
2017-09-09T21:01:07.425Z,12.30
2017-09-09T21:03:34.876Z,12.30
2017-09-09T21:06:02.325Z,12.20
2017-09-09T21:08:30.538Z,12.20
2017-09-09T21:10:57.975Z,12.10
2017-09-09T21:13:25.423Z,12.20
2017-09-09T21:15:52.876Z,12.20
2017-09-09T21:18:20.323Z,12.20
2017-09-09T21:20:47.764Z,12.10
2017-09-09T21:23:15.980Z,12.10
2017-09-09T21:25:43.424Z,12.10
2017-09-09T21:28:10.868Z,12.10
2017-09-09T21:30:38.313Z,12.10
2017-09-09T21:33:05.765Z,12.10
2017-09-09T21:35:33.212Z,12.10
2017-09-09T21:38:00.673Z,12.10
2017-09-09T21:40:28.115Z,12.00
2017-09-09T21:42:55.566Z,12.00
2017-09-09T21:45:23.007Z,12.00
2017-09-09T21:47:50.458Z,12.00
2017-09-09T21:50:18.669Z,12.00
2017-09-09T21:52:46.109Z,12.00
2017-09-09T21:55:14.323Z,12.00
2017-09-09T21:57:41.764Z,12.00
2017-09-09T22:00:09.212Z,12.00
2017-09-09T22:02:36.660Z,12.00
2017-09-09T22:05:04.113Z,12.00
2017-09-09T22:07:31.551Z,12.00
2017-09-09T22:09:59.003Z,12.00
2017-09-09T22:12:26.456Z,11.90
2017-09-09T22:14:53.912Z,11.90
2017-09-09T22:17:21.349Z,12.00
2017-09-09T22:19:48.806Z,12.00
2017-09-09T22:22:16.244Z,11.90
2017-09-09T22:24:43.721Z,11.90
2017-09-09T22:27:11.140Z,11.90
2017-09-09T22:29:38.588Z,11.90
2017-09-09T22:32:06.032Z,11.90
2017-09-09T22:34:34.247Z,11.90
2017-09-09T22:37:01.686Z,11.90
2017-09-09T22:39:29.911Z,11.90
2017-09-09T22:41:57.363Z,11.80
2017-09-09T22:44:24.813Z,11.90
2017-09-09T22:46:52.261Z,11.80
2017-09-09T22:49:20.486Z,11.80
2017-09-09T22:51:47.936Z,11.80
2017-09-09T22:54:15.382Z,11.80
2017-09-09T22:56:42.837Z,11.80
2017-09-09T22:59:10.267Z,11.80
2017-09-09T23:01:37.714Z,11.80
2017-09-09T23:04:05.933Z,11.70
2017-09-09T23:06:33.375Z,11.70
2017-09-09T23:09:00.823Z,11.70
2017-09-09T23:11:28.267Z,11.70
2017-09-09T23:13:55.712Z,11.70
2017-09-09T23:16:23.159Z,11.60
2017-09-09T23:18:50.609Z,11.60
2017-09-09T23:21:18.057Z,11.60
2017-09-09T23:23:45.501Z,11.60
2017-09-09T23:26:12.956Z,11.60
2017-09-09T23:28:40.408Z,11.60
2017-09-09T23:31:07.860Z,11.50
2017-09-09T23:33:35.303Z,11.50
2017-09-09T23:36:03.525Z,11.50
2017-09-09T23:38:30.962Z,11.50
2017-09-09T23:40:58.412Z,11.50
2017-09-09T23:43:25.856Z,11.50
2017-09-09T23:45:54.071Z,11.50
2017-09-09T23:48:21.521Z,11.40
2017-09-09T23:50:48.966Z,11.40
2017-09-09T23:53:16.417Z,11.40
2017-09-09T23:55:43.864Z,11.40
2017-09-09T23:58:12.076Z,11.40
